sensor_id;sensor_type;location;lat;lon;timestamp;pressure;altitude;pressure_sealevel;temperature;humidity
77003;BME280;65939;50.060;14.288;2023-10-19T00:01:58;96166.44;;;5.21;86.64
77003;BME280;65939;50.060;14.288;2023-10-19T00:03:59;96165.16;;;5.25;86.63
77003;BME280;65939;50.060;14.288;2023-10-19T00:06:00;96170.84;;;5.29;86.58
77003;BME280;65939;50.060;14.288;2023-10-19T00:08:05;96157.16;;;5.37;86.74
77003;BME280;65939;50.060;14.288;2023-10-19T00:10:15;96137.47;;;5.44;85.78
77003;BME280;65939;50.060;14.288;2023-10-19T00:12:16;96142.03;;;5.50;85.60
77003;BME280;65939;50.060;14.288;2023-10-19T00:14:18;96139.81;;;5.55;85.30
77003;BME280;65939;50.060;14.288;2023-10-19T00:16:19;96139.50;;;5.58;84.79
77003;BME280;65939;50.060;14.288;2023-10-19T00:18:24;96150.34;;;5.62;84.97
77003;BME280;65939;50.060;14.288;2023-10-19T00:20:25;96149.09;;;5.66;85.35
77003;BME280;65939;50.060;14.288;2023-10-19T00:22:49;96150.56;;;5.68;84.95
77003;BME280;65939;50.060;14.288;2023-10-19T00:24:49;96156.41;;;5.70;84.63
77003;BME280;65939;50.060;14.288;2023-10-19T00:26:50;96158.69;;;5.73;84.61
77003;BME280;65939;50.060;14.288;2023-10-19T00:28:53;96155.81;;;5.76;84.93
77003;BME280;65939;50.060;14.288;2023-10-19T00:30:56;96154.53;;;5.81;84.56
77003;BME280;65939;50.060;14.288;2023-10-19T00:33:04;96143.84;;;5.84;84.56
77003;BME280;65939;50.060;14.288;2023-10-19T00:35:06;96143.53;;;5.87;84.32
77003;BME280;65939;50.060;14.288;2023-10-19T00:37:26;96149.22;;;5.90;83.04
77003;BME280;65939;50.060;14.288;2023-10-19T00:39:29;96144.56;;;5.94;83.19
77003;BME280;65939;50.060;14.288;2023-10-19T00:41:40;96148.63;;;5.96;83.19
77003;BME280;65939;50.060;14.288;2023-10-19T00:43:43;96140.72;;;5.98;83.41
77003;BME280;65939;50.060;14.288;2023-10-19T00:45:43;96138.78;;;6.00;82.62
77003;BME280;65939;50.060;14.288;2023-10-19T00:47:47;96127.44;;;6.01;83.46
77003;BME280;65939;50.060;14.288;2023-10-19T00:49:48;96130.84;;;6.02;82.83
77003;BME280;65939;50.060;14.288;2023-10-19T00:51:52;96134.91;;;6.04;83.29
77003;BME280;65939;50.060;14.288;2023-10-19T00:54:17;96129.41;;;6.07;83.37
77003;BME280;65939;50.060;14.288;2023-10-19T00:56:27;96129.09;;;6.10;83.45
77003;BME280;65939;50.060;14.288;2023-10-19T00:58:32;96116.81;;;6.12;82.54
77003;BME280;65939;50.060;14.288;2023-10-19T01:00:37;96116.47;;;6.15;83.17
77003;BME280;65939;50.060;14.288;2023-10-19T01:02:43;96117.13;;;6.17;82.38
77003;BME280;65939;50.060;14.288;2023-10-19T01:04:50;96119.41;;;6.20;82.11
77003;BME280;65939;50.060;14.288;2023-10-19T01:06:56;96106.28;;;6.22;82.37
77003;BME280;65939;50.060;14.288;2023-10-19T01:09:07;96114.72;;;6.24;83.07
77003;BME280;65939;50.060;14.288;2023-10-19T01:11:10;96107.44;;;6.28;82.44
77003;BME280;65939;50.060;14.288;2023-10-19T01:13:15;96106.47;;;6.29;82.42
77003;BME280;65939;50.060;14.288;2023-10-19T01:15:18;96103.44;;;6.33;82.33
77003;BME280;65939;50.060;14.288;2023-10-19T01:17:28;96103.94;;;6.37;82.11
77003;BME280;65939;50.060;14.288;2023-10-19T01:19:31;96096.63;;;6.40;82.22
77003;BME280;65939;50.060;14.288;2023-10-19T01:21:32;96097.28;;;6.42;81.89
77003;BME280;65939;50.060;14.288;2023-10-19T01:23:46;96089.00;;;6.47;81.46
77003;BME280;65939;50.060;14.288;2023-10-19T01:25:54;96090.47;;;6.50;82.08
77003;BME280;65939;50.060;14.288;2023-10-19T01:27:58;96091.94;;;6.52;81.79
77003;BME280;65939;50.060;14.288;2023-10-19T01:29:59;96085.31;;;6.58;81.39
77003;BME280;65939;50.060;14.288;2023-10-19T01:32:07;96092.94;;;6.59;81.60
77003;BME280;65939;50.060;14.288;2023-10-19T01:34:12;96097.13;;;6.60;81.06
77003;BME280;65939;50.060;14.288;2023-10-19T01:36:14;96101.22;;;6.63;80.65
77003;BME280;65939;50.060;14.288;2023-10-19T01:38:16;96096.81;;;6.63;80.40
77003;BME280;65939;50.060;14.288;2023-10-19T01:40:16;96102.69;;;6.65;80.43
77003;BME280;65939;50.060;14.288;2023-10-19T01:42:21;96104.91;;;6.68;81.31
77003;BME280;65939;50.060;14.288;2023-10-19T01:44:22;96110.59;;;6.72;81.14
77003;BME280;65939;50.060;14.288;2023-10-19T01:46:25;96108.84;;;6.72;80.55
77003;BME280;65939;50.060;14.288;2023-10-19T01:48:26;96099.75;;;6.77;80.98
77003;BME280;65939;50.060;14.288;2023-10-19T01:50:37;96098.59;;;6.79;81.34
77003;BME280;65939;50.060;14.288;2023-10-19T01:52:39;96089.88;;;6.80;80.79
77003;BME280;65939;50.060;14.288;2023-10-19T01:54:40;96084.50;;;6.82;80.92
77003;BME280;65939;50.060;14.288;2023-10-19T01:56:40;96073.16;;;6.83;80.69
77003;BME280;65939;50.060;14.288;2023-10-19T01:58:45;96077.41;;;6.84;80.81
77003;BME280;65939;50.060;14.288;2023-10-19T02:00:49;96077.88;;;6.87;80.77
77003;BME280;65939;50.060;14.288;2023-10-19T02:02:50;96069.91;;;6.89;79.88
77003;BME280;65939;50.060;14.288;2023-10-19T02:04:51;96066.19;;;6.91;80.56
77003;BME280;65939;50.060;14.288;2023-10-19T02:06:53;96056.44;;;6.93;80.61
77003;BME280;65939;50.060;14.288;2023-10-19T02:08:58;96048.66;;;6.93;80.22
77003;BME280;65939;50.060;14.288;2023-10-19T02:11:22;96041.53;;;6.95;80.13
77003;BME280;65939;50.060;14.288;2023-10-19T02:13:23;96035.56;;;6.95;79.92
77003;BME280;65939;50.060;14.288;2023-10-19T02:15:23;96022.72;;;6.93;79.74
77003;BME280;65939;50.060;14.288;2023-10-19T02:17:24;96015.91;;;6.92;79.99
77003;BME280;65939;50.060;14.288;2023-10-19T02:19:29;95996.78;;;6.93;79.84
77003;BME280;65939;50.060;14.288;2023-10-19T02:21:30;95974.41;;;6.92;80.55
77003;BME280;65939;50.060;14.288;2023-10-19T02:23:31;95975.41;;;6.91;80.54
77003;BME280;65939;50.060;14.288;2023-10-19T02:25:33;95971.19;;;6.90;79.38
77003;BME280;65939;50.060;14.288;2023-10-19T02:27:37;95960.97;;;6.89;80.33
77003;BME280;65939;50.060;14.288;2023-10-19T02:29:37;95950.75;;;6.87;80.18
77003;BME280;65939;50.060;14.288;2023-10-19T02:31:40;95927.56;;;6.86;81.13
77003;BME280;65939;50.060;14.288;2023-10-19T02:33:42;95935.66;;;6.83;80.84
77003;BME280;65939;50.060;14.288;2023-10-19T02:35:46;95938.25;;;6.83;80.42
77003;BME280;65939;50.060;14.288;2023-10-19T02:37:48;95950.44;;;6.82;81.72
77003;BME280;65939;50.060;14.288;2023-10-19T02:39:49;95957.25;;;6.83;81.36
77003;BME280;65939;50.060;14.288;2023-10-19T02:41:49;95959.84;;;6.83;81.84
77003;BME280;65939;50.060;14.288;2023-10-19T02:43:50;95969.41;;;6.83;82.11
77003;BME280;65939;50.060;14.288;2023-10-19T02:45:51;95971.03;;;6.84;81.86
77003;BME280;65939;50.060;14.288;2023-10-19T02:47:53;95981.22;;;6.85;82.06
77003;BME280;65939;50.060;14.288;2023-10-19T02:49:54;95972.16;;;6.89;81.66
77003;BME280;65939;50.060;14.288;2023-10-19T02:51:56;95971.00;;;6.92;82.39
77003;BME280;65939;50.060;14.288;2023-10-19T02:54:04;95967.28;;;6.94;81.71
77003;BME280;65939;50.060;14.288;2023-10-19T02:56:13;95966.13;;;6.97;82.09
77003;BME280;65939;50.060;14.288;2023-10-19T02:58:14;95959.81;;;7.00;82.13
77003;BME280;65939;50.060;14.288;2023-10-19T03:00:15;95943.09;;;7.02;81.58
77003;BME280;65939;50.060;14.288;2023-10-19T03:02:16;95945.38;;;7.05;81.67
77003;BME280;65939;50.060;14.288;2023-10-19T03:04:18;95946.97;;;7.06;81.68
77003;BME280;65939;50.060;14.288;2023-10-19T03:06:21;95945.66;;;7.10;82.52
77003;BME280;65939;50.060;14.288;2023-10-19T03:08:22;95939.47;;;7.11;81.61
77003;BME280;65939;50.060;14.288;2023-10-19T03:10:26;95926.50;;;7.11;81.99
77003;BME280;65939;50.060;14.288;2023-10-19T03:12:42;95917.78;;;7.12;82.28
77003;BME280;65939;50.060;14.288;2023-10-19T03:14:43;95920.50;;;7.11;82.13
77003;BME280;65939;50.060;14.288;2023-10-19T03:16:46;95916.13;;;7.11;81.63
77003;BME280;65939;50.060;14.288;2023-10-19T03:18:48;95910.31;;;7.09;81.81
77003;BME280;65939;50.060;14.288;2023-10-19T03:20:48;95908.53;;;7.10;81.85
77003;BME280;65939;50.060;14.288;2023-10-19T03:22:51;95901.72;;;7.09;82.61
77003;BME280;65939;50.060;14.288;2023-10-19T03:24:52;95903.66;;;7.07;82.17
77003;BME280;65939;50.060;14.288;2023-10-19T03:27:14;95894.28;;;7.06;82.33
77003;BME280;65939;50.060;14.288;2023-10-19T03:29:24;95893.63;;;7.04;82.27
77003;BME280;65939;50.060;14.288;2023-10-19T03:31:32;95897.19;;;7.03;82.56
77003;BME280;65939;50.060;14.288;2023-10-19T03:33:33;95891.19;;;7.02;83.21
77003;BME280;65939;50.060;14.288;2023-10-19T03:35:36;95889.59;;;7.01;82.29
77003;BME280;65939;50.060;14.288;2023-10-19T03:37:38;95885.34;;;7.00;83.85
77003;BME280;65939;50.060;14.288;2023-10-19T03:39:39;95888.94;;;6.99;82.83
77003;BME280;65939;50.060;14.288;2023-10-19T03:41:41;95880.81;;;7.02;84.03
77003;BME280;65939;50.060;14.288;2023-10-19T03:43:45;95881.63;;;7.03;83.50
77003;BME280;65939;50.060;14.288;2023-10-19T03:45:45;95873.84;;;7.03;84.03
77003;BME280;65939;50.060;14.288;2023-10-19T03:47:52;95861.69;;;7.03;84.52
77003;BME280;65939;50.060;14.288;2023-10-19T03:49:56;95860.06;;;7.02;83.78
77003;BME280;65939;50.060;14.288;2023-10-19T03:51:57;95851.63;;;7.00;83.76
77003;BME280;65939;50.060;14.288;2023-10-19T03:54:20;95860.41;;;6.99;84.32
77003;BME280;65939;50.060;14.288;2023-10-19T03:56:25;95865.25;;;7.02;85.16
77003;BME280;65939;50.060;14.288;2023-10-19T03:58:25;95865.88;;;7.04;84.32
77003;BME280;65939;50.060;14.288;2023-10-19T04:00:30;95864.75;;;7.07;83.99
77003;BME280;65939;50.060;14.288;2023-10-19T04:02:33;95867.50;;;7.05;84.63
77003;BME280;65939;50.060;14.288;2023-10-19T04:04:39;95866.53;;;7.06;85.14
77003;BME280;65939;50.060;14.288;2023-10-19T04:06:43;95865.53;;;7.07;84.30
77003;BME280;65939;50.060;14.288;2023-10-19T04:08:48;95865.41;;;7.09;83.84
77003;BME280;65939;50.060;14.288;2023-10-19T04:10:51;95870.59;;;7.09;84.36
77003;BME280;65939;50.060;14.288;2023-10-19T04:13:12;95862.00;;;7.08;84.61
77003;BME280;65939;50.060;14.288;2023-10-19T04:15:13;95853.03;;;7.11;84.33
77003;BME280;65939;50.060;14.288;2023-10-19T04:17:17;95854.69;;;7.12;84.65
77003;BME280;65939;50.060;14.288;2023-10-19T04:19:21;95852.88;;;7.12;84.86
77003;BME280;65939;50.060;14.288;2023-10-19T04:21:22;95855.47;;;7.12;85.96
77003;BME280;65939;50.060;14.288;2023-10-19T04:23:23;95858.06;;;7.12;85.45
77003;BME280;65939;50.060;14.288;2023-10-19T04:25:27;95846.72;;;7.13;85.06
77003;BME280;65939;50.060;14.288;2023-10-19T04:27:29;95847.69;;;7.12;84.83
77003;BME280;65939;50.060;14.288;2023-10-19T04:29:32;95846.06;;;7.11;84.76
77003;BME280;65939;50.060;14.288;2023-10-19T04:31:33;95850.28;;;7.12;85.87
77003;BME280;65939;50.060;14.288;2023-10-19T04:33:34;95852.22;;;7.10;86.19
77003;BME280;65939;50.060;14.288;2023-10-19T04:35:36;95840.88;;;7.11;86.05
77003;BME280;65939;50.060;14.288;2023-10-19T04:37:37;95837.94;;;7.14;86.69
77003;BME280;65939;50.060;14.288;2023-10-19T04:39:42;95841.19;;;7.16;86.28
77003;BME280;65939;50.060;14.288;2023-10-19T04:41:43;95836.00;;;7.16;86.42
77003;BME280;65939;50.060;14.288;2023-10-19T04:43:44;95832.75;;;7.14;87.31
77003;BME280;65939;50.060;14.288;2023-10-19T04:45:50;95825.75;;;7.15;86.04
77003;BME280;65939;50.060;14.288;2023-10-19T04:47:52;95823.81;;;7.17;86.14
77003;BME280;65939;50.060;14.288;2023-10-19T04:49:53;95821.88;;;7.19;86.29
77003;BME280;65939;50.060;14.288;2023-10-19T04:51:53;95827.22;;;7.17;86.08
77003;BME280;65939;50.060;14.288;2023-10-19T04:53:55;95824.97;;;7.14;86.49
77003;BME280;65939;50.060;14.288;2023-10-19T04:55:55;95821.56;;;7.14;85.79
77003;BME280;65939;50.060;14.288;2023-10-19T04:57:56;95829.19;;;7.15;85.54
77003;BME280;65939;50.060;14.288;2023-10-19T04:59:58;95820.41;;;7.16;86.08
77003;BME280;65939;50.060;14.288;2023-10-19T05:01:59;95808.06;;;7.18;86.68
77003;BME280;65939;50.060;14.288;2023-10-19T05:04:01;95801.13;;;7.19;86.52
77003;BME280;65939;50.060;14.288;2023-10-19T05:06:02;95799.31;;;7.19;86.18
77003;BME280;65939;50.060;14.288;2023-10-19T05:08:03;95805.13;;;7.22;85.96
77003;BME280;65939;50.060;14.288;2023-10-19T05:10:05;95816.50;;;7.20;86.25
77003;BME280;65939;50.060;14.288;2023-10-19T05:12:08;95821.69;;;7.20;86.19
77003;BME280;65939;50.060;14.288;2023-10-19T05:14:10;95816.50;;;7.20;86.47
77003;BME280;65939;50.060;14.288;2023-10-19T05:16:11;95811.31;;;7.20;86.39
77003;BME280;65939;50.060;14.288;2023-10-19T05:18:11;95810.31;;;7.22;86.58
77003;BME280;65939;50.060;14.288;2023-10-19T05:20:12;95800.94;;;7.20;87.26
77003;BME280;65939;50.060;14.288;2023-10-19T05:22:13;95807.09;;;7.19;87.11
77003;BME280;65939;50.060;14.288;2023-10-19T05:24:14;95805.31;;;7.20;87.46
77003;BME280;65939;50.060;14.288;2023-10-19T05:26:14;95813.09;;;7.20;87.15
77003;BME280;65939;50.060;14.288;2023-10-19T05:28:15;95808.91;;;7.19;86.90
77003;BME280;65939;50.060;14.288;2023-10-19T05:30:16;95810.66;;;7.18;86.64
77003;BME280;65939;50.060;14.288;2023-10-19T05:32:16;95810.66;;;7.18;86.64
77003;BME280;65939;50.060;14.288;2023-10-19T05:34:17;95800.94;;;7.20;86.73
77003;BME280;65939;50.060;14.288;2023-10-19T05:36:19;95792.16;;;7.22;87.75
77003;BME280;65939;50.060;14.288;2023-10-19T05:38:20;95792.97;;;7.22;86.37
77003;BME280;65939;50.060;14.288;2023-10-19T05:40:24;95791.19;;;7.23;86.46
77003;BME280;65939;50.060;14.288;2023-10-19T05:42:29;95783.41;;;7.23;87.03
77003;BME280;65939;50.060;14.288;2023-10-19T05:44:30;95792.00;;;7.23;86.88
77003;BME280;65939;50.060;14.288;2023-10-19T05:46:30;95784.22;;;7.23;87.49
77003;BME280;65939;50.060;14.288;2023-10-19T05:48:32;95781.44;;;7.25;86.53
77003;BME280;65939;50.060;14.288;2023-10-19T05:50:36;95783.88;;;7.26;86.38
77003;BME280;65939;50.060;14.288;2023-10-19T05:52:37;95783.03;;;7.26;87.07
77003;BME280;65939;50.060;14.288;2023-10-19T05:54:37;95776.25;;;7.25;86.71
77003;BME280;65939;50.060;14.288;2023-10-19T05:56:38;95764.25;;;7.24;87.08
77003;BME280;65939;50.060;14.288;2023-10-19T05:58:39;95767.84;;;7.23;87.95
77003;BME280;65939;50.060;14.288;2023-10-19T06:00:39;95767.00;;;7.22;87.78
77003;BME280;65939;50.060;14.288;2023-10-19T06:02:45;95765.41;;;7.21;88.46
77003;BME280;65939;50.060;14.288;2023-10-19T06:04:45;95775.97;;;7.19;88.17
77003;BME280;65939;50.060;14.288;2023-10-19T06:06:47;95789.41;;;7.23;88.50
77003;BME280;65939;50.060;14.288;2023-10-19T06:08:48;95773.31;;;7.28;88.21
77003;BME280;65939;50.060;14.288;2023-10-19T06:10:54;95769.56;;;7.30;88.60
77003;BME280;65939;50.060;14.288;2023-10-19T06:12:55;95770.81;;;7.34;88.78
77003;BME280;65939;50.060;14.288;2023-10-19T06:14:56;95758.31;;;7.38;88.26
77003;BME280;65939;50.060;14.288;2023-10-19T06:16:57;95765.41;;;7.44;88.74
77003;BME280;65939;50.060;14.288;2023-10-19T06:18:58;95765.22;;;7.46;89.07
77003;BME280;65939;50.060;14.288;2023-10-19T06:20:58;95770.25;;;7.47;88.94
77003;BME280;65939;50.060;14.288;2023-10-19T06:22:59;95762.94;;;7.51;87.78
77003;BME280;65939;50.060;14.288;2023-10-19T06:25:06;95756.41;;;7.55;89.00
77003;BME280;65939;50.060;14.288;2023-10-19T06:27:07;95760.41;;;7.57;88.38
77003;BME280;65939;50.060;14.288;2023-10-19T06:29:07;95755.88;;;7.59;89.09
77003;BME280;65939;50.060;14.288;2023-10-19T06:31:08;95763.31;;;7.62;88.99
77003;BME280;65939;50.060;14.288;2023-10-19T06:33:09;95758.13;;;7.62;88.71
77003;BME280;65939;50.060;14.288;2023-10-19T06:35:09;95761.97;;;7.66;89.20
77003;BME280;65939;50.060;14.288;2023-10-19T06:37:11;95767.81;;;7.68;88.95
77003;BME280;65939;50.060;14.288;2023-10-19T06:39:12;95783.03;;;7.72;88.45
77003;BME280;65939;50.060;14.288;2023-10-19T06:41:14;95793.44;;;7.72;89.06
77003;BME280;65939;50.060;14.288;2023-10-19T06:43:15;95789.06;;;7.72;90.09
77003;BME280;65939;50.060;14.288;2023-10-19T06:45:17;95792.28;;;7.74;90.03
77003;BME280;65939;50.060;14.288;2023-10-19T06:47:19;95800.88;;;7.75;89.66
77003;BME280;65939;50.060;14.288;2023-10-19T06:49:20;95801.06;;;7.73;90.05
77003;BME280;65939;50.060;14.288;2023-10-19T06:51:21;95796.31;;;7.77;90.20
77003;BME280;65939;50.060;14.288;2023-10-19T06:53:22;95791.41;;;7.82;90.06
77003;BME280;65939;50.060;14.288;2023-10-19T06:55:23;95784.50;;;7.89;90.11
77003;BME280;65939;50.060;14.288;2023-10-19T06:57:23;95783.81;;;7.95;89.36
77003;BME280;65939;50.060;14.288;2023-10-19T06:59:24;95786.06;;;7.98;89.35
77003;BME280;65939;50.060;14.288;2023-10-19T07:01:25;95780.19;;;8.04;89.40
77003;BME280;65939;50.060;14.288;2023-10-19T07:03:26;95774.44;;;8.09;88.79
77003;BME280;65939;50.060;14.288;2023-10-19T07:05:30;95773.09;;;8.13;89.77
77003;BME280;65939;50.060;14.288;2023-10-19T07:07:30;95770.94;;;8.16;89.14
77003;BME280;65939;50.060;14.288;2023-10-19T07:09:31;95768.59;;;8.22;89.48
77003;BME280;65939;50.060;14.288;2023-10-19T07:11:32;95775.44;;;8.23;89.65
77003;BME280;65939;50.060;14.288;2023-10-19T07:13:36;95779.44;;;8.25;89.03
77003;BME280;65939;50.060;14.288;2023-10-19T07:15:36;95778.59;;;8.33;89.59
77003;BME280;65939;50.060;14.288;2023-10-19T07:17:37;95776.91;;;8.40;88.95
77003;BME280;65939;50.060;14.288;2023-10-19T07:19:42;95781.38;;;8.46;89.41
77003;BME280;65939;50.060;14.288;2023-10-19T07:21:43;95774.66;;;8.52;88.68
77003;BME280;65939;50.060;14.288;2023-10-19T07:23:48;95755.09;;;8.56;88.89
77003;BME280;65939;50.060;14.288;2023-10-19T07:25:53;95756.19;;;8.61;88.72
77003;BME280;65939;50.060;14.288;2023-10-19T07:28:00;95741.63;;;8.67;88.75
77003;BME280;65939;50.060;14.288;2023-10-19T07:30:01;95735.06;;;8.71;88.75
77003;BME280;65939;50.060;14.288;2023-10-19T07:32:06;95735.34;;;8.76;88.36
77003;BME280;65939;50.060;14.288;2023-10-19T07:34:08;95734.78;;;8.81;88.82
77003;BME280;65939;50.060;14.288;2023-10-19T07:36:13;95734.06;;;8.87;89.19
77003;BME280;65939;50.060;14.288;2023-10-19T07:38:19;95741.50;;;8.90;89.02
77003;BME280;65939;50.060;14.288;2023-10-19T07:40:23;95748.31;;;8.91;88.72
77003;BME280;65939;50.060;14.288;2023-10-19T07:42:24;95757.94;;;8.91;87.88
77003;BME280;65939;50.060;14.288;2023-10-19T07:44:26;95757.13;;;8.90;88.07
77003;BME280;65939;50.060;14.288;2023-10-19T07:46:26;95759.53;;;8.92;87.79
77003;BME280;65939;50.060;14.288;2023-10-19T07:48:29;95763.59;;;8.94;87.98
77003;BME280;65939;50.060;14.288;2023-10-19T07:50:30;95760.53;;;8.91;86.86
77003;BME280;65939;50.060;14.288;2023-10-19T07:52:30;95764.31;;;8.88;87.12
77003;BME280;65939;50.060;14.288;2023-10-19T07:54:31;95762.34;;;8.90;86.89
77003;BME280;65939;50.060;14.288;2023-10-19T07:56:31;95765.19;;;8.95;86.76
77003;BME280;65939;50.060;14.288;2023-10-19T07:58:34;95763.66;;;9.01;87.41
77003;BME280;65939;50.060;14.288;2023-10-19T08:00:35;95762.09;;;9.06;87.67
77003;BME280;65939;50.060;14.288;2023-10-19T08:02:38;95765.78;;;9.12;87.52
77003;BME280;65939;50.060;14.288;2023-10-19T08:04:41;95768.19;;;9.14;87.54
77003;BME280;65939;50.060;14.288;2023-10-19T08:06:42;95761.63;;;9.18;87.51
77003;BME280;65939;50.060;14.288;2023-10-19T08:08:42;95755.88;;;9.22;87.71
77003;BME280;65939;50.060;14.288;2023-10-19T08:10:43;95759.34;;;9.29;86.84
77003;BME280;65939;50.060;14.288;2023-10-19T08:12:45;95757.56;;;9.30;86.40
77003;BME280;65939;50.060;14.288;2023-10-19T08:14:48;95748.72;;;9.31;86.72
77003;BME280;65939;50.060;14.288;2023-10-19T08:16:49;95744.75;;;9.35;86.98
77003;BME280;65939;50.060;14.288;2023-10-19T08:18:49;95738.81;;;9.41;87.53
77003;BME280;65939;50.060;14.288;2023-10-19T08:20:50;95729.47;;;9.47;87.91
77003;BME280;65939;50.060;14.288;2023-10-19T08:22:51;95730.50;;;9.52;87.84
77003;BME280;65939;50.060;14.288;2023-10-19T08:24:53;95725.53;;;9.57;88.03
77003;BME280;65939;50.060;14.288;2023-10-19T08:26:55;95728.38;;;9.63;87.87
77003;BME280;65939;50.060;14.288;2023-10-19T08:28:55;95739.06;;;9.68;88.18
77003;BME280;65939;50.060;14.288;2023-10-19T08:30:56;95734.09;;;9.73;88.45
77003;BME280;65939;50.060;14.288;2023-10-19T08:32:57;95731.53;;;9.79;88.11
77003;BME280;65939;50.060;14.288;2023-10-19T08:34:58;95722.75;;;9.87;88.67
77003;BME280;65939;50.060;14.288;2023-10-19T08:37:00;95723.41;;;9.96;89.24
77003;BME280;65939;50.060;14.288;2023-10-19T08:39:01;95720.69;;;10.04;88.42
77003;BME280;65939;50.060;14.288;2023-10-19T08:41:06;95717.91;;;10.12;nan
77003;BME280;65939;50.060;14.288;2023-10-19T08:43:06;95709.50;;;10.17;87.67
77003;BME280;65939;50.060;14.288;2023-10-19T08:45:14;95712.75;;;10.19;87.38
77003;BME280;65939;50.060;14.288;2023-10-19T08:47:16;95706.94;;;10.23;87.98
77003;BME280;65939;50.060;14.288;2023-10-19T08:49:17;95699.75;;;10.25;86.92
77003;BME280;65939;50.060;14.288;2023-10-19T08:51:20;95698.75;;;10.26;87.09
77003;BME280;65939;50.060;14.288;2023-10-19T08:53:21;95696.56;;;10.30;86.63
77003;BME280;65939;50.060;14.288;2023-10-19T08:55:23;95693.38;;;10.35;86.62
77003;BME280;65939;50.060;14.288;2023-10-19T08:57:24;95694.41;;;10.40;85.53
77003;BME280;65939;50.060;14.288;2023-10-19T08:59:25;95716.13;;;10.47;86.70
77003;BME280;65939;50.060;14.288;2023-10-19T09:01:27;95715.94;;;10.55;85.61
77003;BME280;65939;50.060;14.288;2023-10-19T09:03:28;95722.38;;;10.60;85.38
77003;BME280;65939;50.060;14.288;2023-10-19T09:05:29;95716.63;;;10.64;85.53
77003;BME280;65939;50.060;14.288;2023-10-19T09:07:30;95722.84;;;10.70;85.34
77003;BME280;65939;50.060;14.288;2023-10-19T09:09:31;95720.84;;;10.72;84.47
77003;BME280;65939;50.060;14.288;2023-10-19T09:11:33;95717.84;;;10.75;84.27
77003;BME280;65939;50.060;14.288;2023-10-19T09:13:48;95719.66;;;10.81;83.95
77003;BME280;65939;50.060;14.288;2023-10-19T09:15:49;95715.28;;;10.88;83.88
77003;BME280;65939;50.060;14.288;2023-10-19T09:17:53;95717.91;;;10.95;84.29
77003;BME280;65939;50.060;14.288;2023-10-19T09:19:57;95710.88;;;11.02;84.28
77003;BME280;65939;50.060;14.288;2023-10-19T09:21:59;95689.22;;;11.08;83.92
77003;BME280;65939;50.060;14.288;2023-10-19T09:24:00;95696.84;;;11.16;84.70
77003;BME280;65939;50.060;14.288;2023-10-19T09:26:04;95696.69;;;11.24;84.40
77003;BME280;65939;50.060;14.288;2023-10-19T09:28:07;95698.31;;;11.32;82.62
77003;BME280;65939;50.060;14.288;2023-10-19T09:30:15;95698.09;;;11.40;82.46
77003;BME280;65939;50.060;14.288;2023-10-19T09:32:19;95698.09;;;11.47;81.61
77003;BME280;65939;50.060;14.288;2023-10-19T09:34:20;95693.91;;;11.53;81.27
77003;BME280;65939;50.060;14.288;2023-10-19T09:36:24;95704.34;;;11.59;80.99
77003;BME280;65939;50.060;14.288;2023-10-19T09:38:27;95710.59;;;11.65;80.58
77003;BME280;65939;50.060;14.288;2023-10-19T09:40:28;95717.41;;;11.72;81.98
77003;BME280;65939;50.060;14.288;2023-10-19T09:42:31;95700.31;;;11.83;82.06
77003;BME280;65939;50.060;14.288;2023-10-19T09:44:44;95694.50;;;11.94;81.60
77003;BME280;65939;50.060;14.288;2023-10-19T09:46:48;95702.16;;;12.03;80.72
77003;BME280;65939;50.060;14.288;2023-10-19T09:48:50;95708.56;;;12.07;79.61
77003;BME280;65939;50.060;14.288;2023-10-19T09:50:54;95701.94;;;12.11;79.38
77003;BME280;65939;50.060;14.288;2023-10-19T09:52:55;95704.13;;;12.14;79.11
77003;BME280;65939;50.060;14.288;2023-10-19T09:57:18;95695.06;;;12.16;79.91
77003;BME280;65939;50.060;14.288;2023-10-19T09:59:26;95684.41;;;12.18;80.80
77003;BME280;65939;50.060;14.288;2023-10-19T10:02:03;95681.38;;;12.28;79.90
77003;BME280;65939;50.060;14.288;2023-10-19T10:04:03;95682.34;;;12.33;79.93
77003;BME280;65939;50.060;14.288;2023-10-19T10:06:08;95677.88;;;12.40;80.57
77003;BME280;65939;50.060;14.288;2023-10-19T10:10:18;95676.81;;;12.55;79.74
77003;BME280;65939;50.060;14.288;2023-10-19T10:12:24;95678.22;;;12.57;78.75
77003;BME280;65939;50.060;14.288;2023-10-19T10:14:26;95666.56;;;12.60;79.54
77003;BME280;65939;50.060;14.288;2023-10-19T10:16:29;95662.09;;;12.67;78.66
77003;BME280;65939;50.060;14.288;2023-10-19T10:18:31;95664.84;;;12.79;79.17
77003;BME280;65939;50.060;14.288;2023-10-19T10:20:33;95669.22;;;12.91;78.88
77003;BME280;65939;50.060;14.288;2023-10-19T10:22:34;95668.75;;;13.01;78.57
77003;BME280;65939;50.060;14.288;2023-10-19T10:24:35;95668.69;;;13.08;77.89
77003;BME280;65939;50.060;14.288;2023-10-19T10:26:58;95665.03;;;13.15;78.41
77003;BME280;65939;50.060;14.288;2023-10-19T10:29:21;95663.38;;;13.28;77.57
77003;BME280;65939;50.060;14.288;2023-10-19T10:31:23;95663.47;;;13.39;77.58
77003;BME280;65939;50.060;14.288;2023-10-19T10:37:53;95661.22;;;13.68;76.62
77003;BME280;65939;50.060;14.288;2023-10-19T10:39:59;95654.47;;;13.79;76.42
77003;BME280;65939;50.060;14.288;2023-10-19T10:42:02;95658.50;;;13.81;75.25
77003;BME280;65939;50.060;14.288;2023-10-19T10:44:04;95652.81;;;13.84;75.70
77003;BME280;65939;50.060;14.288;2023-10-19T10:46:05;95649.91;;;13.93;75.60
77003;BME280;65939;50.060;14.288;2023-10-19T10:48:15;95649.06;;;13.99;75.68
77003;BME280;65939;50.060;14.288;2023-10-19T10:50:19;95647.00;;;14.01;75.13
77003;BME280;65939;50.060;14.288;2023-10-19T10:54:24;95638.13;;;14.02;73.85
77003;BME280;65939;50.060;14.288;2023-10-19T10:56:25;95632.88;;;14.02;74.64
77003;BME280;65939;50.060;14.288;2023-10-19T10:58:26;95628.44;;;14.02;74.34
77003;BME280;65939;50.060;14.288;2023-10-19T11:00:26;95626.16;;;14.06;75.25
77003;BME280;65939;50.060;14.288;2023-10-19T11:02:27;95627.34;;;14.10;74.68